createdAt,value
2018-08-03T00:02:03.197Z,49.23
2018-08-03T00:04:29.247Z,48.44
2018-08-03T00:06:55.841Z,49.46
2018-08-03T00:09:21.890Z,50.32
2018-08-03T00:11:47.949Z,51.54
2018-08-03T00:14:13.947Z,52.75
2018-08-03T00:16:39.966Z,52.12
2018-08-03T00:19:05.950Z,51.29
2018-08-03T00:21:32.024Z,51.77
2018-08-03T00:23:58.066Z,51.98
2018-08-03T00:26:24.126Z,51.63
2018-08-03T00:28:50.152Z,51.43
2018-08-03T00:31:16.165Z,51.78
2018-08-03T00:33:42.216Z,50.56
2018-08-03T00:36:08.497Z,50.45
2018-08-03T00:38:34.529Z,50.68
2018-08-03T00:41:00.501Z,50.96
2018-08-03T00:43:26.543Z,51.52
2018-08-03T00:45:52.522Z,51.07
2018-08-03T00:48:18.547Z,51.14
2018-08-03T00:50:45.363Z,51.40
2018-08-03T00:53:11.370Z,51.07
2018-08-03T00:55:37.372Z,51.93
2018-08-03T00:58:03.377Z,52.24
2018-08-03T01:00:29.376Z,51.77
2018-08-03T01:02:55.427Z,51.77
2018-08-03T01:05:21.421Z,51.69
2018-08-03T01:07:47.425Z,52.05
2018-08-03T01:10:13.398Z,53.90
2018-08-03T01:12:39.389Z,53.38
2018-08-03T01:15:05.360Z,53.98
2018-08-03T01:17:31.444Z,53.39
2018-08-03T01:19:57.428Z,52.14
2018-08-03T01:22:23.434Z,51.72
2018-08-03T01:24:49.432Z,51.12
2018-08-03T01:27:15.419Z,51.75
2018-08-03T01:29:41.404Z,52.19
2018-08-03T01:32:08.285Z,52.42
2018-08-03T01:34:34.277Z,51.58
2018-08-03T01:37:00.297Z,50.81
2018-08-03T01:39:26.335Z,50.11
2018-08-03T01:41:52.329Z,51.49
2018-08-03T01:44:18.317Z,51.27
2018-08-03T01:46:44.272Z,52.57
2018-08-03T01:49:10.257Z,51.61
2018-08-03T01:51:36.254Z,50.49
2018-08-03T01:54:04.623Z,51.49
2018-08-03T01:56:30.695Z,51.49
2018-08-03T01:58:56.788Z,51.44
2018-08-03T02:01:22.766Z,51.47
2018-08-03T02:03:48.807Z,51.17
2018-08-03T02:06:14.864Z,50.79
2018-08-03T02:08:40.847Z,50.39
2018-08-03T02:11:06.849Z,50.28
2018-08-03T02:13:32.847Z,49.56
2018-08-03T02:15:58.895Z,49.91
2018-08-03T02:18:24.904Z,50.21
2018-08-03T02:20:51.217Z,49.51
2018-08-03T02:23:17.216Z,50.32
2018-08-03T02:25:43.184Z,49.94
2018-08-03T02:28:09.170Z,49.72
2018-08-03T02:30:35.178Z,48.79
2018-08-03T02:33:01.753Z,49.07
2018-08-03T02:35:27.732Z,50.34
2018-08-03T02:37:53.744Z,51.01
2018-08-03T02:40:19.779Z,51.55
2018-08-03T02:42:45.795Z,52.10
2018-08-03T02:45:11.831Z,50.89
2018-08-03T02:47:37.878Z,50.63
2018-08-03T02:50:03.964Z,51.07
2018-08-03T02:52:29.962Z,50.77
2018-08-03T02:54:55.944Z,50.15
2018-08-03T02:57:21.950Z,50.79
2018-08-03T02:59:47.929Z,51.30
2018-08-03T03:02:14.826Z,51.15
2018-08-03T03:04:40.820Z,51.78
2018-08-03T03:07:06.864Z,50.44
2018-08-03T03:09:32.905Z,51.02
2018-08-03T03:11:59.649Z,51.62
2018-08-03T03:14:26.884Z,51.84
2018-08-03T03:16:52.955Z,51.49
2018-08-03T03:19:19.093Z,52.87
2018-08-03T03:21:45.195Z,51.93
2018-08-03T03:24:11.210Z,51.82
2018-08-03T03:26:37.250Z,52.97
2018-08-03T03:29:04.582Z,52.34
2018-08-03T03:31:30.659Z,52.37
2018-08-03T03:33:56.642Z,50.77
2018-08-03T03:36:22.676Z,51.26
2018-08-03T03:38:48.665Z,52.87
2018-08-03T03:41:14.733Z,52.94
2018-08-03T03:43:40.705Z,51.23
2018-08-03T03:46:06.837Z,51.86
2018-08-03T03:48:32.945Z,51.75
2018-08-03T03:50:59.002Z,51.90
2018-08-03T03:53:24.976Z,51.01
2018-08-03T03:55:51.115Z,51.42
2018-08-03T03:58:17.154Z,51.11
2018-08-03T04:00:43.163Z,50.10
2018-08-03T04:03:09.149Z,50.70
2018-08-03T04:05:35.164Z,52.31
2018-08-03T04:08:04.184Z,51.79
2018-08-03T04:10:30.239Z,51.50
2018-08-03T04:12:56.280Z,50.72
2018-08-03T04:15:22.408Z,50.97
2018-08-03T04:17:48.523Z,52.10
2018-08-03T04:20:15.491Z,52.57
2018-08-03T04:22:41.617Z,52.03
2018-08-03T04:25:07.699Z,51.21
2018-08-03T04:27:35.653Z,51.08
2018-08-03T04:30:01.790Z,52.53
2018-08-03T04:32:29.301Z,52.24
2018-08-03T04:34:55.458Z,52.09
2018-08-03T04:37:22.941Z,52.21
2018-08-03T04:39:49.007Z,51.88
2018-08-03T04:42:15.158Z,51.31
2018-08-03T04:44:43.045Z,49.72
2018-08-03T04:47:09.102Z,49.38
2018-08-03T04:49:35.189Z,49.01
2018-08-03T04:52:01.220Z,49.15
2018-08-03T04:54:27.298Z,48.78
2018-08-03T04:56:53.336Z,49.51
2018-08-03T04:59:19.400Z,49.50
2018-08-03T05:01:45.497Z,49.04
2018-08-03T05:04:12.339Z,47.72
2018-08-03T05:06:38.388Z,48.17
2018-08-03T05:09:04.579Z,47.47
2018-08-03T05:11:30.853Z,46.89
2018-08-03T05:13:58.199Z,48.01
2018-08-03T05:16:27.167Z,46.96
2018-08-03T05:18:55.410Z,46.94
2018-08-03T05:24:00.853Z,46.70
2018-08-03T05:26:26.919Z,46.80
2018-08-03T05:28:53.833Z,46.61
2018-08-03T05:31:21.015Z,46.17
2018-08-03T05:33:51.465Z,46.41
2018-08-03T05:36:17.680Z,45.76
2018-08-03T05:38:45.640Z,46.03
2018-08-03T05:41:11.728Z,46.52
2018-08-03T05:43:37.697Z,46.42
2018-08-03T05:46:03.738Z,45.52
2018-08-03T05:48:29.879Z,45.86
2018-08-03T05:50:56.741Z,45.62
2018-08-03T05:58:27.912Z,44.17
2018-08-03T06:00:53.864Z,44.14
2018-08-03T06:03:19.816Z,44.24
2018-08-03T06:05:45.811Z,43.27
2018-08-03T06:08:12.159Z,42.99
2018-08-03T06:13:15.669Z,41.55
2018-08-03T06:15:41.644Z,42.02
2018-08-03T06:18:07.654Z,41.92
2018-08-03T06:20:34.185Z,42.08
2018-08-03T06:23:00.240Z,42.66
2018-08-03T06:25:26.248Z,41.79
2018-08-03T06:27:53.190Z,42.00
2018-08-03T06:30:19.291Z,41.92
2018-08-03T06:32:45.366Z,41.19
2018-08-03T06:35:11.435Z,41.39
2018-08-03T06:37:37.547Z,40.34
2018-08-03T06:42:35.833Z,40.81
2018-08-03T06:45:01.934Z,41.05
2018-08-03T06:47:28.058Z,40.21
2018-08-03T06:49:57.279Z,40.16
2018-08-03T06:52:24.297Z,39.63
2018-08-03T06:54:50.288Z,39.51
2018-08-03T06:57:16.320Z,40.29
2018-08-03T06:59:42.393Z,40.59
2018-08-03T07:02:09.788Z,40.60
2018-08-03T07:04:36.674Z,40.39
2018-08-03T07:07:03.239Z,39.52
2018-08-03T07:09:30.518Z,39.80
2018-08-03T07:11:56.659Z,40.10
2018-08-03T07:14:23.699Z,40.18
2018-08-03T07:16:49.771Z,39.96
2018-08-03T07:19:15.835Z,39.58
2018-08-03T07:21:41.843Z,39.58
2018-08-03T07:24:07.860Z,39.99
2018-08-03T07:26:33.951Z,39.63
2018-08-03T07:29:00.007Z,39.33
2018-08-03T07:31:26.034Z,38.98
2018-08-03T07:33:53.878Z,39.08
2018-08-03T07:36:19.897Z,39.30
2018-08-03T07:38:45.992Z,39.00
2018-08-03T07:41:11.998Z,39.50
2018-08-03T07:43:37.985Z,39.26
2018-08-03T07:46:04.670Z,39.33
2018-08-03T07:48:30.719Z,39.96
2018-08-03T07:50:59.714Z,40.27
2018-08-03T07:53:26.305Z,39.41
2018-08-03T07:55:52.311Z,39.49
2018-08-03T07:58:18.634Z,39.46
2018-08-03T08:00:44.665Z,40.28
2018-08-03T08:03:10.689Z,39.61
2018-08-03T08:05:36.679Z,39.46
2018-08-03T08:08:02.763Z,39.74
2018-08-03T08:10:28.794Z,39.17
2018-08-03T08:12:54.892Z,39.70
2018-08-03T08:15:20.991Z,39.05
2018-08-03T08:17:47.072Z,39.16
2018-08-03T08:20:13.119Z,39.41
2018-08-03T08:22:39.976Z,37.99
2018-08-03T08:25:07.874Z,39.02
2018-08-03T08:27:34.547Z,38.88
2018-08-03T08:30:03.644Z,39.01
2018-08-03T08:32:30.786Z,38.60
2018-08-03T08:35:05.345Z,38.99
2018-08-03T08:37:31.935Z,38.96
2018-08-03T08:40:00.068Z,38.99
2018-08-03T08:42:27.723Z,38.81
2018-08-03T08:44:53.975Z,39.11
2018-08-03T08:47:21.313Z,39.18
2018-08-03T08:49:49.070Z,39.64
2018-08-03T08:54:53.860Z,39.79
2018-08-03T08:57:19.837Z,39.45
2018-08-03T08:59:46.957Z,39.75
2018-08-03T09:02:13.920Z,39.92
2018-08-03T09:04:39.872Z,39.29
2018-08-03T09:07:07.343Z,39.50
2018-08-03T09:09:33.415Z,38.79
2018-08-03T09:11:59.526Z,38.81
2018-08-03T09:14:25.733Z,38.92
2018-08-03T09:16:53.351Z,38.64
2018-08-03T09:19:19.546Z,38.89
2018-08-03T09:21:45.589Z,38.12
2018-08-03T09:24:12.751Z,39.43
2018-08-03T09:26:39.036Z,39.86
2018-08-03T09:29:05.282Z,39.63
2018-08-03T09:31:31.476Z,39.73
2018-08-03T09:33:57.554Z,39.82
2018-08-03T09:36:23.676Z,39.95
2018-08-03T09:38:49.851Z,40.12
2018-08-03T09:41:15.994Z,39.60
2018-08-03T09:43:42.016Z,39.32
2018-08-03T09:46:11.958Z,39.19
2018-08-03T09:48:38.062Z,39.34
2018-08-03T09:51:04.729Z,39.75
2018-08-03T09:53:31.157Z,39.29
2018-08-03T09:55:58.111Z,39.75
2018-08-03T09:58:24.141Z,39.48
2018-08-03T10:00:50.225Z,39.09
2018-08-03T10:03:16.359Z,39.67
2018-08-03T10:05:43.227Z,39.05
2018-08-03T10:08:14.438Z,39.32
2018-08-03T10:10:40.600Z,39.11
2018-08-03T10:13:06.911Z,38.47
2018-08-03T10:15:33.030Z,38.48
2018-08-03T10:17:59.201Z,38.34
2018-08-03T10:20:25.338Z,39.04
2018-08-03T10:22:51.336Z,39.23
2018-08-03T10:25:17.508Z,38.39
2018-08-03T10:27:43.692Z,38.19
2018-08-03T10:30:09.884Z,38.55
2018-08-03T10:32:35.963Z,38.41
2018-08-03T10:35:02.182Z,38.51
2018-08-03T10:37:28.271Z,38.13
2018-08-03T10:39:54.479Z,37.86
2018-08-03T10:42:20.590Z,38.42
2018-08-03T10:44:46.586Z,37.99
2018-08-03T10:47:12.718Z,38.24
2018-08-03T10:49:38.848Z,37.98
2018-08-03T10:52:05.099Z,38.33
2018-08-03T10:54:31.246Z,38.17
2018-08-03T10:56:57.353Z,38.33
2018-08-03T10:59:23.432Z,38.14
2018-08-03T11:01:50.293Z,37.72
2018-08-03T11:04:17.494Z,38.24
2018-08-03T11:06:43.888Z,38.67
2018-08-03T11:09:09.993Z,38.59
2018-08-03T11:11:36.145Z,38.63
2018-08-03T11:14:02.488Z,38.44
2018-08-03T11:16:28.757Z,37.86
2018-08-03T11:18:54.809Z,38.36
2018-08-03T11:21:20.821Z,38.52
2018-08-03T11:23:46.876Z,38.66
2018-08-03T11:26:12.937Z,37.94
2018-08-03T11:31:10.825Z,36.61
2018-08-03T11:33:36.849Z,37.27
2018-08-03T11:36:09.316Z,37.36
2018-08-03T11:38:35.404Z,37.90
2018-08-03T11:41:05.360Z,37.16
2018-08-03T11:43:31.454Z,36.66
2018-08-03T11:45:57.497Z,37.13
2018-08-03T11:48:23.911Z,37.04
2018-08-03T11:50:50.428Z,36.66
2018-08-03T11:53:16.561Z,35.56
2018-08-03T11:55:42.615Z,35.79
2018-08-03T11:58:08.665Z,35.73
2018-08-03T12:00:34.836Z,36.72
2018-08-03T12:03:00.993Z,35.82
2018-08-03T12:05:27.906Z,35.55
2018-08-03T12:07:54.166Z,35.90
2018-08-03T12:10:20.234Z,35.54
2018-08-03T12:12:46.622Z,35.30
2018-08-03T12:15:12.728Z,35.82
2018-08-03T12:17:38.828Z,35.26
2018-08-03T12:20:05.736Z,35.90
2018-08-03T12:22:31.805Z,35.65
2018-08-03T12:24:57.865Z,35.72
2018-08-03T12:27:24.224Z,35.75
2018-08-03T12:29:50.257Z,35.81
2018-08-03T12:32:16.370Z,36.35
2018-08-03T12:34:42.589Z,36.26
2018-08-03T12:37:08.756Z,36.49
2018-08-03T12:39:34.813Z,35.97
2018-08-03T12:42:00.953Z,35.28
2018-08-03T12:44:27.326Z,35.11
2018-08-03T12:46:53.375Z,35.33
2018-08-03T12:49:19.554Z,35.44
2018-08-03T12:51:45.728Z,35.25
2018-08-03T12:54:11.808Z,34.54
2018-08-03T12:56:37.870Z,35.41
2018-08-03T12:59:03.882Z,35.09
2018-08-03T13:01:30.085Z,34.67
2018-08-03T13:04:02.748Z,34.93
2018-08-03T13:06:32.899Z,34.83
2018-08-03T13:08:58.981Z,34.97
2018-08-03T13:11:25.029Z,34.65
2018-08-03T13:13:51.212Z,34.82
2018-08-03T13:16:17.264Z,34.09
2018-08-03T13:18:43.518Z,34.68
2018-08-03T13:21:09.745Z,34.34
2018-08-03T13:23:36.026Z,34.22
2018-08-03T13:26:02.059Z,35.57
2018-08-03T13:28:28.405Z,34.32
2018-08-03T13:30:54.411Z,34.64
2018-08-03T13:33:20.751Z,34.43
2018-08-03T13:35:46.864Z,34.40
2018-08-03T13:38:12.936Z,34.72
2018-08-03T13:40:38.928Z,34.51
2018-08-03T13:43:05.009Z,34.18
2018-08-03T13:45:31.010Z,34.09
2018-08-03T13:47:57.058Z,33.57
2018-08-03T13:50:23.229Z,34.02
2018-08-03T13:52:49.347Z,32.97
2018-08-03T13:55:15.371Z,34.23
2018-08-03T13:57:41.502Z,33.36
2018-08-03T14:00:07.414Z,33.89
2018-08-03T14:02:33.475Z,33.61
2018-08-03T14:04:59.429Z,33.26
2018-08-03T14:07:25.416Z,32.67
2018-08-03T14:09:51.625Z,32.75
2018-08-03T14:12:17.667Z,33.10
2018-08-03T14:14:43.648Z,32.44
2018-08-03T14:17:09.807Z,32.08
2018-08-03T14:19:35.920Z,32.22
2018-08-03T14:22:03.525Z,32.48
2018-08-03T14:24:29.656Z,32.88
2018-08-03T14:26:55.625Z,32.45
2018-08-03T14:29:21.608Z,33.16
2018-08-03T14:31:47.732Z,33.05
2018-08-03T14:34:13.717Z,33.06
2018-08-03T14:36:41.169Z,32.95
2018-08-03T14:39:07.159Z,32.72
2018-08-03T14:41:33.212Z,32.72
2018-08-03T14:43:59.306Z,33.12
2018-08-03T14:46:25.401Z,33.31
2018-08-03T14:48:51.510Z,32.20
2018-08-03T15:13:59.048Z,33.53
2018-08-03T15:16:25.125Z,32.89
2018-08-03T15:18:51.127Z,32.64
2018-08-03T15:21:17.138Z,32.56
2018-08-03T15:23:43.246Z,32.55
2018-08-03T15:26:09.228Z,32.50
2018-08-03T15:28:35.334Z,32.98
2018-08-03T15:31:01.328Z,33.13
2018-08-03T15:33:27.352Z,32.24
2018-08-03T15:35:53.346Z,33.16
2018-08-03T15:38:19.509Z,32.42
2018-08-03T15:40:45.594Z,32.38
2018-08-03T15:43:11.683Z,32.34
2018-08-03T15:45:37.691Z,32.55
2018-08-03T15:48:03.761Z,32.60
2018-08-03T15:50:29.829Z,32.45
2018-08-03T15:52:55.931Z,32.25
2018-08-03T15:55:22.048Z,31.96
2018-08-03T15:57:48.021Z,32.22
2018-08-03T16:00:14.056Z,32.40
2018-08-03T16:02:40.074Z,32.36
2018-08-03T16:05:06.162Z,32.00
2018-08-03T16:07:32.258Z,32.11
2018-08-03T16:09:58.409Z,32.63
2018-08-03T16:12:24.781Z,32.77
2018-08-03T16:14:50.813Z,32.40
2018-08-03T16:17:16.893Z,32.48
2018-08-03T16:19:42.947Z,31.77
2018-08-03T16:22:08.984Z,32.51
2018-08-03T16:24:35.047Z,32.51
2018-08-03T16:27:01.099Z,32.43
2018-08-03T16:29:27.184Z,32.25
2018-08-03T16:31:53.230Z,32.52
2018-08-03T16:34:19.273Z,31.82
2018-08-03T16:36:45.218Z,31.76
2018-08-03T16:39:11.216Z,32.01
2018-08-03T16:41:37.405Z,32.43
2018-08-03T16:44:03.400Z,32.29
2018-08-03T16:46:29.580Z,32.07
2018-08-03T16:48:55.603Z,32.22
2018-08-03T16:51:21.745Z,32.01
2018-08-03T16:53:47.856Z,31.90
2018-08-03T16:56:13.953Z,31.68
2018-08-03T16:58:39.952Z,31.86
2018-08-03T17:01:05.946Z,31.50
2018-08-03T17:03:31.912Z,32.14
2018-08-03T17:05:57.933Z,31.80
2018-08-03T17:08:24.116Z,32.15
2018-08-03T17:10:50.165Z,32.35
2018-08-03T17:13:16.378Z,32.27
2018-08-03T17:15:42.471Z,31.69
2018-08-03T17:18:08.781Z,31.85
2018-08-03T17:20:34.949Z,31.85
2018-08-03T17:23:00.926Z,31.87
2018-08-03T17:25:26.891Z,31.83
2018-08-03T17:27:53.088Z,34.32
2018-08-03T17:30:19.170Z,35.26
2018-08-03T17:32:45.328Z,36.83
2018-08-03T17:40:15.182Z,36.20
2018-08-03T17:42:41.322Z,35.21
2018-08-03T17:45:07.697Z,35.43
2018-08-03T17:47:34.064Z,35.37
2018-08-03T17:50:05.454Z,34.99
2018-08-03T17:52:32.329Z,34.27
2018-08-03T17:54:58.535Z,34.35
2018-08-03T17:57:25.737Z,35.95
2018-08-03T17:59:52.146Z,35.59
2018-08-03T18:02:19.477Z,35.48
2018-08-03T18:04:47.431Z,35.53
2018-08-03T18:07:16.400Z,35.24
2018-08-03T18:09:45.322Z,35.63
2018-08-03T18:12:11.670Z,35.77
2018-08-03T18:14:44.194Z,35.72
2018-08-03T18:17:10.237Z,35.62
2018-08-03T18:19:36.517Z,35.01
2018-08-03T18:22:02.629Z,35.62
2018-08-03T18:24:29.438Z,35.25
2018-08-03T18:26:55.720Z,35.30
2018-08-03T18:31:54.245Z,35.55
2018-08-03T18:34:20.477Z,35.19
2018-08-03T18:36:47.018Z,35.30
2018-08-03T18:39:13.183Z,35.52
2018-08-03T18:41:39.313Z,35.40
2018-08-03T18:44:06.633Z,35.50
2018-08-03T18:46:34.609Z,35.76
2018-08-03T18:49:00.848Z,35.62
2018-08-03T18:51:27.042Z,35.30
2018-08-03T18:53:53.394Z,35.39
2018-08-03T18:56:19.877Z,34.71
2018-08-03T18:58:45.992Z,35.61
2018-08-03T19:03:44.706Z,35.31
2018-08-03T19:06:12.339Z,35.58
2018-08-03T19:29:42.099Z,42.60
2018-08-03T19:32:14.702Z,42.11
2018-08-03T19:44:49.503Z,42.85
2018-08-03T19:47:20.478Z,43.58
2018-08-03T20:10:10.843Z,44.98
2018-08-03T20:15:14.898Z,45.51
2018-08-03T20:17:48.979Z,45.02
2018-08-03T20:25:29.116Z,45.45
2018-08-03T20:27:57.994Z,45.35
2018-08-03T20:30:27.178Z,44.92
2018-08-03T20:32:57.415Z,45.30
2018-08-03T20:35:31.167Z,45.12
2018-08-03T20:37:59.703Z,50.89
2018-08-03T20:40:26.116Z,53.46
2018-08-03T20:42:53.098Z,57.17
2018-08-03T20:45:19.202Z,57.84
2018-08-03T20:47:45.418Z,56.27
2018-08-03T20:50:11.772Z,56.67
2018-08-03T20:52:38.280Z,57.01
2018-08-03T20:55:11.577Z,59.75
2018-08-03T20:57:37.835Z,55.28
2018-08-03T21:00:04.671Z,52.25
2018-08-03T21:02:36.674Z,51.64
2018-08-03T21:05:02.964Z,49.00
2018-08-03T21:07:30.234Z,51.44
2018-08-03T21:09:57.589Z,51.59
2018-08-03T21:12:23.851Z,50.97
2018-08-03T21:14:50.171Z,50.87
2018-08-03T21:22:20.172Z,51.36
2018-08-03T21:24:46.580Z,49.37
2018-08-03T21:27:12.919Z,49.31
2018-08-03T21:29:40.430Z,48.28
2018-08-03T21:32:09.092Z,49.39
2018-08-03T21:34:35.790Z,50.49
2018-08-03T21:37:02.592Z,49.50
2018-08-03T21:39:29.822Z,50.35
2018-08-03T21:41:57.366Z,50.02
2018-08-03T21:44:23.824Z,50.52
2018-08-03T21:46:50.784Z,48.42
2018-08-03T21:49:17.182Z,48.44
2018-08-03T21:51:44.290Z,49.83
2018-08-03T21:54:10.770Z,48.78
2018-08-03T21:56:38.954Z,49.53
2018-08-03T21:59:05.456Z,47.00
2018-08-03T22:01:33.366Z,44.91
2018-08-03T22:04:00.236Z,49.70
2018-08-03T22:06:26.590Z,47.65
2018-08-03T22:08:52.845Z,49.54
2018-08-03T22:11:19.688Z,50.26
2018-08-03T22:13:46.314Z,50.55
2018-08-03T22:16:15.020Z,48.06
2018-08-03T22:18:42.571Z,46.72
2018-08-03T22:21:08.969Z,49.30
2018-08-03T22:23:35.576Z,45.78
2018-08-03T22:26:02.511Z,47.56
2018-08-03T22:28:30.950Z,46.81
2018-08-03T22:31:00.302Z,48.04
2018-08-03T22:33:27.460Z,48.32
2018-08-03T22:35:54.414Z,45.99
2018-08-03T22:38:21.780Z,48.44
2018-08-03T22:43:21.574Z,46.52
2018-08-03T22:45:49.957Z,46.85
2018-08-03T22:48:17.387Z,47.75
2018-08-03T22:50:45.840Z,47.31
2018-08-03T22:53:13.016Z,43.79
2018-08-03T22:55:42.953Z,47.40
2018-08-03T22:58:13.016Z,43.44
2018-08-03T23:00:39.269Z,45.08
2018-08-03T23:10:49.273Z,45.32
2018-08-03T23:13:17.019Z,45.83
2018-08-03T23:15:49.168Z,46.11
2018-08-03T23:18:15.888Z,46.76
2018-08-03T23:20:45.222Z,46.07
2018-08-03T23:23:13.660Z,45.74
2018-08-03T23:25:40.600Z,44.86
2018-08-03T23:28:08.237Z,45.42
2018-08-03T23:30:37.834Z,46.34
2018-08-03T23:33:05.425Z,45.95
2018-08-03T23:35:32.379Z,45.34
2018-08-03T23:38:00.399Z,46.50
2018-08-03T23:40:28.675Z,47.34
2018-08-03T23:42:56.994Z,47.10
2018-08-03T23:45:25.131Z,46.58
2018-08-03T23:47:52.622Z,47.11
2018-08-03T23:50:24.458Z,46.72
2018-08-03T23:52:51.932Z,47.58
2018-08-03T23:55:20.612Z,46.19
2018-08-03T23:57:48.665Z,47.69
